Terminal Aerodrome Forecast
Issued by NWS

Home | Current Version | Previous Version | Text Only | Print | Product List | Glossary On
Versions: 1 2 3 4 5 6 7 8 9 10 11 12 13 14
669
FTUS43 KOAX 081733
TAFBFF
TAF
KBFF 081733Z 0818/0918 30006KT P6SM FEW250
     FM082100 14007KT P6SM SCT120 BKN200
     FM090400 12007KT P6SM BKN050 OVC100=

USA.gov is the U.S. government's official web portal to all federal, state and local government web resources and services.